sensor_id;sensor_type;location;lat;lon;timestamp;noise_LAeq;noise_LA_min;noise_LA_max;noise_LA01;noise_LA95
47923;Laerm;33688;44.354;9.228;2023-09-30T00:01:24;37.58;35.45;43.84;;
47923;Laerm;33688;44.354;9.228;2023-09-30T00:03:50;37.67;35.34;44.25;;
47923;Laerm;33688;44.354;9.228;2023-09-30T00:06:15;37.62;35.41;43.88;;
47923;Laerm;33688;44.354;9.228;2023-09-30T00:08:41;37.65;35.22;44.42;;
47923;Laerm;33688;44.354;9.228;2023-09-30T00:11:10;37.62;35.33;44.37;;
47923;Laerm;33688;44.354;9.228;2023-09-30T00:13:35;37.67;35.39;44.39;;
47923;Laerm;33688;44.354;9.228;2023-09-30T00:16:02;37.64;35.28;44.04;;
47923;Laerm;33688;44.354;9.228;2023-09-30T00:18:28;37.64;35.39;44.08;;
47923;Laerm;33688;44.354;9.228;2023-09-30T00:20:54;37.69;35.29;44.18;;
47923;Laerm;33688;44.354;9.228;2023-09-30T00:23:20;37.65;35.35;44.02;;
47923;Laerm;33688;44.354;9.228;2023-09-30T00:25:48;37.66;35.49;44.06;;
47923;Laerm;33688;44.354;9.228;2023-09-30T00:28:15;37.63;35.23;43.97;;
47923;Laerm;33688;44.354;9.228;2023-09-30T00:30:41;37.63;35.36;44.10;;
47923;Laerm;33688;44.354;9.228;2023-09-30T00:33:07;37.62;35.33;44.06;;
47923;Laerm;33688;44.354;9.228;2023-09-30T00:35:33;37.64;35.41;43.88;;
47923;Laerm;33688;44.354;9.228;2023-09-30T00:37:59;37.61;35.36;43.88;;
47923;Laerm;33688;44.354;9.228;2023-09-30T00:40:24;37.62;35.34;43.92;;
47923;Laerm;33688;44.354;9.228;2023-09-30T00:42:50;37.63;35.39;44.21;;
47923;Laerm;33688;44.354;9.228;2023-09-30T00:45:16;37.65;35.28;43.84;;
47923;Laerm;33688;44.354;9.228;2023-09-30T00:47:43;37.63;35.45;44.01;;
47923;Laerm;33688;44.354;9.228;2023-09-30T00:50:09;37.69;35.50;47.42;;
47923;Laerm;33688;44.354;9.228;2023-09-30T00:52:38;37.61;35.29;43.91;;
47923;Laerm;33688;44.354;9.228;2023-09-30T00:55:04;37.64;35.39;43.87;;
47923;Laerm;33688;44.354;9.228;2023-09-30T00:57:33;37.63;35.28;44.12;;
47923;Laerm;33688;44.354;9.228;2023-09-30T01:00:00;37.61;35.33;43.97;;
47923;Laerm;33688;44.354;9.228;2023-09-30T01:02:27;37.66;35.33;44.12;;
47923;Laerm;33688;44.354;9.228;2023-09-30T01:04:53;37.62;35.39;43.93;;
47923;Laerm;33688;44.354;9.228;2023-09-30T01:07:20;37.62;35.44;43.80;;
47923;Laerm;33688;44.354;9.228;2023-09-30T01:09:49;37.62;35.40;44.17;;
47923;Laerm;33688;44.354;9.228;2023-09-30T01:12:16;37.62;35.35;44.65;;
47923;Laerm;33688;44.354;9.228;2023-09-30T01:14:42;37.65;35.38;43.79;;
47923;Laerm;33688;44.354;9.228;2023-09-30T01:17:09;37.64;35.36;44.25;;
47923;Laerm;33688;44.354;9.228;2023-09-30T01:19:35;37.62;35.34;43.89;;
47923;Laerm;33688;44.354;9.228;2023-09-30T01:22:01;37.65;35.40;44.28;;
47923;Laerm;33688;44.354;9.228;2023-09-30T01:24:38;37.55;35.45;43.82;;
47923;Laerm;33688;44.354;9.228;2023-09-30T01:27:07;37.50;35.41;43.82;;
47923;Laerm;33688;44.354;9.228;2023-09-30T01:29:33;37.59;35.38;44.14;;
47923;Laerm;33688;44.354;9.228;2023-09-30T01:31:59;37.59;35.45;43.77;;
47923;Laerm;33688;44.354;9.228;2023-09-30T01:34:25;37.62;35.39;44.63;;
47923;Laerm;33688;44.354;9.228;2023-09-30T01:36:51;37.62;35.44;44.10;;
47923;Laerm;33688;44.354;9.228;2023-09-30T01:39:18;37.59;35.19;44.02;;
47923;Laerm;33688;44.354;9.228;2023-09-30T01:41:44;37.64;35.21;44.04;;
47923;Laerm;33688;44.354;9.228;2023-09-30T01:44:12;37.62;35.49;44.00;;
47923;Laerm;33688;44.354;9.228;2023-09-30T01:46:39;37.65;35.44;44.13;;
47923;Laerm;33688;44.354;9.228;2023-09-30T01:49:06;37.60;34.96;44.12;;
47923;Laerm;33688;44.354;9.228;2023-09-30T01:51:31;37.62;35.28;43.89;;
47923;Laerm;33688;44.354;9.228;2023-09-30T01:53:58;37.63;35.26;44.06;;
47923;Laerm;33688;44.354;9.228;2023-09-30T01:56:23;37.66;35.45;44.41;;
47923;Laerm;33688;44.354;9.228;2023-09-30T01:58:49;37.61;35.31;43.88;;
47923;Laerm;33688;44.354;9.228;2023-09-30T02:01:15;37.58;35.25;44.03;;
47923;Laerm;33688;44.354;9.228;2023-09-30T02:03:41;37.64;35.40;44.08;;
47923;Laerm;33688;44.354;9.228;2023-09-30T02:06:08;37.63;35.42;44.05;;
47923;Laerm;33688;44.354;9.228;2023-09-30T02:08:34;37.65;35.37;45.02;;
47923;Laerm;33688;44.354;9.228;2023-09-30T02:11:03;37.62;35.11;44.24;;
47923;Laerm;33688;44.354;9.228;2023-09-30T02:13:34;37.59;35.44;44.30;;
47923;Laerm;33688;44.354;9.228;2023-09-30T02:16:03;37.49;35.46;43.72;;
47923;Laerm;33688;44.354;9.228;2023-09-30T02:18:29;37.61;35.36;44.23;;
47923;Laerm;33688;44.354;9.228;2023-09-30T02:20:58;37.61;35.36;44.21;;
47923;Laerm;33688;44.354;9.228;2023-09-30T02:23:26;37.62;35.36;44.32;;
47923;Laerm;33688;44.354;9.228;2023-09-30T02:25:51;37.63;35.50;43.92;;
47923;Laerm;33688;44.354;9.228;2023-09-30T02:28:18;37.60;35.23;44.06;;
47923;Laerm;33688;44.354;9.228;2023-09-30T02:30:44;37.62;35.39;43.89;;
47923;Laerm;33688;44.354;9.228;2023-09-30T02:33:10;37.62;35.52;43.90;;
47923;Laerm;33688;44.354;9.228;2023-09-30T02:35:36;37.65;35.54;44.26;;
47923;Laerm;33688;44.354;9.228;2023-09-30T02:38:04;37.63;35.43;43.94;;
47923;Laerm;33688;44.354;9.228;2023-09-30T02:40:30;37.61;35.45;43.98;;
47923;Laerm;33688;44.354;9.228;2023-09-30T02:42:56;37.65;35.34;44.15;;
47923;Laerm;33688;44.354;9.228;2023-09-30T02:45:23;37.65;35.35;44.09;;
47923;Laerm;33688;44.354;9.228;2023-09-30T02:47:50;37.64;35.43;43.97;;
47923;Laerm;33688;44.354;9.228;2023-09-30T02:50:16;37.64;35.39;43.94;;
47923;Laerm;33688;44.354;9.228;2023-09-30T02:52:41;37.63;35.35;44.10;;
47923;Laerm;33688;44.354;9.228;2023-09-30T02:55:09;37.60;35.43;44.34;;
47923;Laerm;33688;44.354;9.228;2023-09-30T02:57:35;37.63;35.42;44.01;;
47923;Laerm;33688;44.354;9.228;2023-09-30T03:00:03;37.62;35.11;43.97;;
47923;Laerm;33688;44.354;9.228;2023-09-30T03:02:40;37.50;35.24;43.80;;
47923;Laerm;33688;44.354;9.228;2023-09-30T03:05:07;37.59;35.35;43.70;;
47923;Laerm;33688;44.354;9.228;2023-09-30T03:07:34;37.62;35.32;43.82;;
47923;Laerm;33688;44.354;9.228;2023-09-30T03:10:00;37.63;35.45;44.09;;
47923;Laerm;33688;44.354;9.228;2023-09-30T03:12:30;37.57;35.44;44.00;;
47923;Laerm;33688;44.354;9.228;2023-09-30T03:14:57;37.61;35.29;44.05;;
47923;Laerm;33688;44.354;9.228;2023-09-30T03:17:25;37.61;35.38;44.15;;
47923;Laerm;33688;44.354;9.228;2023-09-30T03:19:51;37.63;35.40;43.85;;
47923;Laerm;33688;44.354;9.228;2023-09-30T03:22:20;37.60;35.38;44.00;;
47923;Laerm;33688;44.354;9.228;2023-09-30T03:24:46;37.58;35.38;43.75;;
47923;Laerm;33688;44.354;9.228;2023-09-30T03:27:13;37.62;35.23;43.70;;
47923;Laerm;33688;44.354;9.228;2023-09-30T03:29:41;37.59;35.42;44.07;;
47923;Laerm;33688;44.354;9.228;2023-09-30T03:32:30;37.43;35.41;43.90;;
47923;Laerm;33688;44.354;9.228;2023-09-30T03:34:56;37.52;35.38;43.90;;
47923;Laerm;33688;44.354;9.228;2023-09-30T03:37:25;37.57;35.46;44.01;;
47923;Laerm;33688;44.354;9.228;2023-09-30T03:39:55;37.54;35.20;43.81;;
47923;Laerm;33688;44.354;9.228;2023-09-30T03:42:21;37.60;35.35;44.05;;
47923;Laerm;33688;44.354;9.228;2023-09-30T03:44:47;37.66;35.32;45.76;;
47923;Laerm;33688;44.354;9.228;2023-09-30T03:47:15;37.79;35.48;46.11;;
47923;Laerm;33688;44.354;9.228;2023-09-30T03:49:42;37.71;35.45;44.26;;
47923;Laerm;33688;44.354;9.228;2023-09-30T03:52:13;37.55;35.32;44.03;;
47923;Laerm;33688;44.354;9.228;2023-09-30T03:54:39;37.61;35.39;43.89;;
47923;Laerm;33688;44.354;9.228;2023-09-30T03:57:07;37.59;35.29;43.95;;
47923;Laerm;33688;44.354;9.228;2023-09-30T03:59:33;37.61;35.44;43.78;;
47923;Laerm;33688;44.354;9.228;2023-09-30T04:01:59;37.59;35.35;44.29;;
47923;Laerm;33688;44.354;9.228;2023-09-30T04:04:25;37.58;35.35;44.29;;
47923;Laerm;33688;44.354;9.228;2023-09-30T04:06:51;37.58;35.44;43.94;;
47923;Laerm;33688;44.354;9.228;2023-09-30T04:09:18;37.59;35.44;43.69;;
47923;Laerm;33688;44.354;9.228;2023-09-30T04:11:44;37.60;35.36;43.98;;
47923;Laerm;33688;44.354;9.228;2023-09-30T04:14:10;37.57;35.31;43.87;;
47923;Laerm;33688;44.354;9.228;2023-09-30T04:16:36;37.66;35.33;49.08;;
47923;Laerm;33688;44.354;9.228;2023-09-30T04:19:04;37.58;35.43;44.33;;
47923;Laerm;33688;44.354;9.228;2023-09-30T04:21:58;37.37;35.35;43.85;;
47923;Laerm;33688;44.354;9.228;2023-09-30T04:24:27;37.47;35.35;43.77;;
47923;Laerm;33688;44.354;9.228;2023-09-30T04:26:54;37.56;35.32;43.96;;
47923;Laerm;33688;44.354;9.228;2023-09-30T04:29:26;37.38;35.34;43.76;;
47923;Laerm;33688;44.354;9.228;2023-09-30T04:31:52;37.52;35.48;43.99;;
47923;Laerm;33688;44.354;9.228;2023-09-30T04:34:18;37.58;35.27;43.74;;
47923;Laerm;33688;44.354;9.228;2023-09-30T04:37:04;37.44;35.32;43.94;;
47923;Laerm;33688;44.354;9.228;2023-09-30T04:39:31;37.49;35.26;43.53;;
47923;Laerm;33688;44.354;9.228;2023-09-30T04:42:01;37.55;34.95;43.86;;
47923;Laerm;33688;44.354;9.228;2023-09-30T04:44:27;37.62;35.47;46.78;;
47923;Laerm;33688;44.354;9.228;2023-09-30T04:46:57;37.54;35.45;43.86;;
47923;Laerm;33688;44.354;9.228;2023-09-30T04:49:24;37.59;35.35;43.95;;
47923;Laerm;33688;44.354;9.228;2023-09-30T04:51:50;37.63;35.37;43.88;;
47923;Laerm;33688;44.354;9.228;2023-09-30T04:54:15;37.58;35.43;44.24;;
47923;Laerm;33688;44.354;9.228;2023-09-30T04:56:41;37.55;35.31;43.72;;
47923;Laerm;33688;44.354;9.228;2023-09-30T04:59:07;37.57;35.38;43.90;;
47923;Laerm;33688;44.354;9.228;2023-09-30T05:01:33;37.55;35.36;43.94;;
47923;Laerm;33688;44.354;9.228;2023-09-30T05:03:59;37.56;35.32;43.89;;
47923;Laerm;33688;44.354;9.228;2023-09-30T05:06:24;37.58;35.38;44.10;;
47923;Laerm;33688;44.354;9.228;2023-09-30T05:08:50;37.59;35.46;44.11;;
47923;Laerm;33688;44.354;9.228;2023-09-30T05:11:17;37.55;35.37;44.15;;
47923;Laerm;33688;44.354;9.228;2023-09-30T05:13:42;37.59;35.52;43.97;;
47923;Laerm;33688;44.354;9.228;2023-09-30T05:16:09;37.85;35.38;48.73;;
47923;Laerm;33688;44.354;9.228;2023-09-30T05:18:35;37.61;35.35;43.80;;
47923;Laerm;33688;44.354;9.228;2023-09-30T05:21:02;37.62;35.32;44.35;;
47923;Laerm;33688;44.354;9.228;2023-09-30T05:23:28;37.56;35.48;44.03;;
47923;Laerm;33688;44.354;9.228;2023-09-30T05:25:54;37.67;35.37;44.26;;
47923;Laerm;33688;44.354;9.228;2023-09-30T05:28:22;37.53;35.49;43.93;;
47923;Laerm;33688;44.354;9.228;2023-09-30T05:30:49;37.56;35.41;43.82;;
47923;Laerm;33688;44.354;9.228;2023-09-30T05:33:16;37.89;35.37;55.12;;
47923;Laerm;33688;44.354;9.228;2023-09-30T05:35:44;37.90;35.39;44.22;;
47923;Laerm;33688;44.354;9.228;2023-09-30T05:38:09;37.54;35.19;44.06;;
47923;Laerm;33688;44.354;9.228;2023-09-30T05:40:36;38.74;35.52;44.55;;
47923;Laerm;33688;44.354;9.228;2023-09-30T05:43:02;37.78;35.49;43.90;;
47923;Laerm;33688;44.354;9.228;2023-09-30T05:45:31;38.21;35.37;45.11;;
47923;Laerm;33688;44.354;9.228;2023-09-30T05:48:02;37.37;35.44;43.44;;
47923;Laerm;33688;44.354;9.228;2023-09-30T05:50:35;37.35;35.37;43.76;;
47923;Laerm;33688;44.354;9.228;2023-09-30T05:53:03;37.38;35.41;43.45;;
47923;Laerm;33688;44.354;9.228;2023-09-30T05:55:30;37.51;35.49;43.84;;
47923;Laerm;33688;44.354;9.228;2023-09-30T05:57:56;37.67;35.51;43.87;;
47923;Laerm;33688;44.354;9.228;2023-09-30T06:00:22;37.57;35.48;43.70;;
47923;Laerm;33688;44.354;9.228;2023-09-30T06:02:49;38.46;35.26;55.53;;
47923;Laerm;33688;44.354;9.228;2023-09-30T06:05:18;42.54;35.36;67.95;;
47923;Laerm;33688;44.354;9.228;2023-09-30T06:07:46;37.95;35.39;50.12;;
47923;Laerm;33688;44.354;9.228;2023-09-30T06:10:12;37.61;35.50;43.59;;
47923;Laerm;33688;44.354;9.228;2023-09-30T06:12:42;37.58;35.51;43.81;;
47923;Laerm;33688;44.354;9.228;2023-09-30T06:15:09;39.46;35.49;54.19;;
47923;Laerm;33688;44.354;9.228;2023-09-30T06:17:35;37.79;35.38;52.03;;
47923;Laerm;33688;44.354;9.228;2023-09-30T06:20:05;37.58;35.55;44.21;;
47923;Laerm;33688;44.354;9.228;2023-09-30T06:22:35;37.65;35.51;46.24;;
47923;Laerm;33688;44.354;9.228;2023-09-30T06:25:01;38.13;35.46;49.97;;
47923;Laerm;33688;44.354;9.228;2023-09-30T06:27:29;37.97;35.45;49.23;;
47923;Laerm;33688;44.354;9.228;2023-09-30T06:29:55;38.60;35.49;52.66;;
47923;Laerm;33688;44.354;9.228;2023-09-30T06:32:21;41.61;35.56;65.85;;
47923;Laerm;33688;44.354;9.228;2023-09-30T06:34:48;37.75;35.58;44.01;;
47923;Laerm;33688;44.354;9.228;2023-09-30T06:37:15;39.92;35.55;47.81;;
47923;Laerm;33688;44.354;9.228;2023-09-30T06:39:42;38.68;35.53;59.69;;
47923;Laerm;33688;44.354;9.228;2023-09-30T06:42:07;51.31;35.59;75.38;;
47923;Laerm;33688;44.354;9.228;2023-09-30T06:44:33;49.66;42.65;67.98;;
47923;Laerm;33688;44.354;9.228;2023-09-30T06:47:00;52.90;43.28;74.75;;
47923;Laerm;33688;44.354;9.228;2023-09-30T06:49:26;44.07;42.34;52.52;;
47923;Laerm;33688;44.354;9.228;2023-09-30T06:51:51;43.93;42.61;50.88;;
47923;Laerm;33688;44.354;9.228;2023-09-30T06:54:17;47.62;42.57;71.61;;
47923;Laerm;33688;44.354;9.228;2023-09-30T06:56:43;51.23;42.77;74.55;;
47923;Laerm;33688;44.354;9.228;2023-09-30T06:59:09;51.60;43.35;71.71;;
47923;Laerm;33688;44.354;9.228;2023-09-30T07:01:36;49.64;42.57;69.03;;
47923;Laerm;33688;44.354;9.228;2023-09-30T07:04:02;39.41;35.57;62.45;;
47923;Laerm;33688;44.354;9.228;2023-09-30T07:06:28;38.83;35.55;53.55;;
47923;Laerm;33688;44.354;9.228;2023-09-30T07:08:55;38.07;35.75;44.49;;
47923;Laerm;33688;44.354;9.228;2023-09-30T07:11:30;38.01;35.50;44.11;;
47923;Laerm;33688;44.354;9.228;2023-09-30T07:13:59;38.11;35.56;47.07;;
47923;Laerm;33688;44.354;9.228;2023-09-30T07:16:24;38.10;35.71;44.61;;
47923;Laerm;33688;44.354;9.228;2023-09-30T07:18:50;37.96;35.48;44.13;;
47923;Laerm;33688;44.354;9.228;2023-09-30T07:21:16;37.86;35.57;44.24;;
47923;Laerm;33688;44.354;9.228;2023-09-30T07:23:42;37.93;35.60;44.60;;
47923;Laerm;33688;44.354;9.228;2023-09-30T07:26:08;38.74;35.52;47.53;;
47923;Laerm;33688;44.354;9.228;2023-09-30T07:28:34;37.93;35.69;44.19;;
47923;Laerm;33688;44.354;9.228;2023-09-30T07:31:00;39.41;35.70;60.43;;
47923;Laerm;33688;44.354;9.228;2023-09-30T07:33:26;39.79;35.54;59.03;;
47923;Laerm;33688;44.354;9.228;2023-09-30T07:35:51;38.23;35.39;48.20;;
47923;Laerm;33688;44.354;9.228;2023-09-30T07:38:17;39.00;35.87;53.58;;
47923;Laerm;33688;44.354;9.228;2023-09-30T07:40:43;38.21;35.69;50.57;;
47923;Laerm;33688;44.354;9.228;2023-09-30T07:43:10;38.03;35.34;44.36;;
47923;Laerm;33688;44.354;9.228;2023-09-30T07:45:38;38.22;35.67;44.97;;
47923;Laerm;33688;44.354;9.228;2023-09-30T07:48:04;38.17;35.64;52.25;;
47923;Laerm;33688;44.354;9.228;2023-09-30T07:50:32;38.32;35.79;49.52;;
47923;Laerm;33688;44.354;9.228;2023-09-30T07:52:59;38.19;35.50;52.72;;
47923;Laerm;33688;44.354;9.228;2023-09-30T07:55:26;43.42;35.73;71.94;;
47923;Laerm;33688;44.354;9.228;2023-09-30T07:57:51;38.01;35.70;44.11;;
47923;Laerm;33688;44.354;9.228;2023-09-30T08:00:17;39.43;35.69;54.66;;
47923;Laerm;33688;44.354;9.228;2023-09-30T08:02:45;38.06;35.85;44.11;;
47923;Laerm;33688;44.354;9.228;2023-09-30T08:05:13;51.09;35.70;79.25;;
47923;Laerm;33688;44.354;9.228;2023-09-30T08:07:39;38.36;35.54;44.56;;
47923;Laerm;33688;44.354;9.228;2023-09-30T08:10:06;38.42;35.75;53.37;;
47923;Laerm;33688;44.354;9.228;2023-09-30T08:12:39;41.44;35.70;68.64;;
47923;Laerm;33688;44.354;9.228;2023-09-30T08:15:07;38.19;35.67;45.87;;
47923;Laerm;33688;44.354;9.228;2023-09-30T08:17:34;38.51;35.60;44.45;;
47923;Laerm;33688;44.354;9.228;2023-09-30T08:20:00;38.24;35.78;44.32;;
47923;Laerm;33688;44.354;9.228;2023-09-30T08:22:27;38.20;35.64;44.50;;
47923;Laerm;33688;44.354;9.228;2023-09-30T08:24:54;38.97;35.66;55.90;;
47923;Laerm;33688;44.354;9.228;2023-09-30T08:27:20;40.26;35.70;64.26;;
47923;Laerm;33688;44.354;9.228;2023-09-30T08:29:46;40.47;35.67;50.93;;
47923;Laerm;33688;44.354;9.228;2023-09-30T08:32:12;38.21;35.63;48.12;;
47923;Laerm;33688;44.354;9.228;2023-09-30T08:34:38;38.34;35.65;50.61;;
47923;Laerm;33688;44.354;9.228;2023-09-30T08:37:05;38.15;35.62;44.43;;
47923;Laerm;33688;44.354;9.228;2023-09-30T08:39:30;38.32;35.65;51.74;;
47923;Laerm;33688;44.354;9.228;2023-09-30T08:41:56;38.48;35.70;45.83;;
47923;Laerm;33688;44.354;9.228;2023-09-30T08:44:22;38.94;35.66;52.11;;
47923;Laerm;33688;44.354;9.228;2023-09-30T08:46:49;38.38;35.72;47.18;;
47923;Laerm;33688;44.354;9.228;2023-09-30T08:49:16;41.06;35.81;65.86;;
47923;Laerm;33688;44.354;9.228;2023-09-30T08:51:44;40.12;35.82;60.25;;
47923;Laerm;33688;44.354;9.228;2023-09-30T08:54:11;41.57;35.90;62.81;;
47923;Laerm;33688;44.354;9.228;2023-09-30T08:56:40;40.78;35.77;66.43;;
47923;Laerm;33688;44.354;9.228;2023-09-30T08:59:06;43.03;35.87;70.93;;
47923;Laerm;33688;44.354;9.228;2023-09-30T09:01:33;41.32;35.55;60.24;;
47923;Laerm;33688;44.354;9.228;2023-09-30T09:04:00;38.50;35.87;44.35;;
47923;Laerm;33688;44.354;9.228;2023-09-30T09:06:29;40.56;35.93;59.37;;
47923;Laerm;33688;44.354;9.228;2023-09-30T09:09:13;42.38;35.66;69.70;;
47923;Laerm;33688;44.354;9.228;2023-09-30T09:11:41;38.55;35.56;49.26;;
47923;Laerm;33688;44.354;9.228;2023-09-30T09:14:07;38.49;35.60;52.02;;
47923;Laerm;33688;44.354;9.228;2023-09-30T09:16:34;42.49;35.74;70.11;;
47923;Laerm;33688;44.354;9.228;2023-09-30T09:19:13;38.10;35.57;51.27;;
47923;Laerm;33688;44.354;9.228;2023-09-30T09:21:58;38.37;35.70;46.64;;
47923;Laerm;33688;44.354;9.228;2023-09-30T09:24:35;40.77;35.92;53.74;;
47923;Laerm;33688;44.354;9.228;2023-09-30T09:27:12;40.36;35.70;58.43;;
47923;Laerm;33688;44.354;9.228;2023-09-30T09:29:39;38.34;35.62;50.02;;
47923;Laerm;33688;44.354;9.228;2023-09-30T09:32:13;39.28;35.70;58.81;;
47923;Laerm;33688;44.354;9.228;2023-09-30T09:34:43;38.41;35.77;51.94;;
47923;Laerm;33688;44.354;9.228;2023-09-30T09:37:20;38.82;35.70;53.59;;
47923;Laerm;33688;44.354;9.228;2023-09-30T09:39:56;38.12;35.83;43.91;;
47923;Laerm;33688;44.354;9.228;2023-09-30T09:42:33;39.02;35.86;56.61;;
47923;Laerm;33688;44.354;9.228;2023-09-30T09:45:03;38.19;35.81;48.52;;
47923;Laerm;33688;44.354;9.228;2023-09-30T09:47:32;38.12;35.73;44.14;;
47923;Laerm;33688;44.354;9.228;2023-09-30T09:49:59;38.17;35.52;44.68;;
47923;Laerm;33688;44.354;9.228;2023-09-30T09:52:25;38.16;35.56;44.94;;
47923;Laerm;33688;44.354;9.228;2023-09-30T09:54:52;38.11;35.65;47.52;;
47923;Laerm;33688;44.354;9.228;2023-09-30T09:57:19;38.05;35.62;44.34;;
47923;Laerm;33688;44.354;9.228;2023-09-30T09:59:46;38.47;35.67;45.82;;
47923;Laerm;33688;44.354;9.228;2023-09-30T10:02:15;39.99;35.57;52.54;;
47923;Laerm;33688;44.354;9.228;2023-09-30T10:04:45;40.40;35.82;57.47;;
47923;Laerm;33688;44.354;9.228;2023-09-30T10:07:36;38.46;35.73;52.70;;
47923;Laerm;33688;44.354;9.228;2023-09-30T10:10:03;39.08;35.80;55.07;;
47923;Laerm;33688;44.354;9.228;2023-09-30T10:12:40;38.20;35.72;51.27;;
47923;Laerm;33688;44.354;9.228;2023-09-30T10:15:40;38.34;35.50;45.99;;
47923;Laerm;33688;44.354;9.228;2023-09-30T10:18:11;38.33;35.57;45.15;;
47923;Laerm;33688;44.354;9.228;2023-09-30T10:20:39;37.04;35.59;46.27;;
47923;Laerm;33688;44.354;9.228;2023-09-30T10:23:28;48.08;35.51;65.38;;
47923;Laerm;33688;44.354;9.228;2023-09-30T10:28:46;40.23;35.71;55.81;;
47923;Laerm;33688;44.354;9.228;2023-09-30T10:36:31;38.12;35.69;46.32;;
47923;Laerm;33688;44.354;9.228;2023-09-30T10:38:58;39.33;35.57;59.66;;
47923;Laerm;33688;44.354;9.228;2023-09-30T10:46:59;41.77;35.66;62.97;;
47923;Laerm;33688;44.354;9.228;2023-09-30T10:51:55;43.39;35.56;64.45;;
47923;Laerm;33688;44.354;9.228;2023-09-30T10:54:29;39.02;35.78;56.59;;
47923;Laerm;33688;44.354;9.228;2023-09-30T10:56:57;41.64;35.64;63.03;;
47923;Laerm;33688;44.354;9.228;2023-09-30T10:59:28;47.70;35.69;72.16;;
47923;Laerm;33688;44.354;9.228;2023-09-30T11:02:00;38.23;35.66;44.64;;
47923;Laerm;33688;44.354;9.228;2023-09-30T11:04:27;39.39;35.73;55.11;;
47923;Laerm;33688;44.354;9.228;2023-09-30T11:06:54;39.83;35.69;58.88;;
47923;Laerm;33688;44.354;9.228;2023-09-30T11:09:21;41.30;35.74;66.26;;
47923;Laerm;33688;44.354;9.228;2023-09-30T11:11:50;38.32;35.65;45.74;;
47923;Laerm;33688;44.354;9.228;2023-09-30T11:14:28;37.96;35.66;47.13;;
47923;Laerm;33688;44.354;9.228;2023-09-30T11:17:00;38.85;35.75;52.14;;
47923;Laerm;33688;44.354;9.228;2023-09-30T11:19:45;37.12;35.59;45.99;;
47923;Laerm;33688;44.354;9.228;2023-09-30T11:22:11;38.50;35.94;46.92;;
47923;Laerm;33688;44.354;9.228;2023-09-30T11:24:38;38.22;35.53;50.02;;
47923;Laerm;33688;44.354;9.228;2023-09-30T11:27:03;38.29;35.67;49.22;;
47923;Laerm;33688;44.354;9.228;2023-09-30T11:29:29;38.34;36.01;45.79;;
47923;Laerm;33688;44.354;9.228;2023-09-30T11:31:56;38.63;35.66;50.11;;
47923;Laerm;33688;44.354;9.228;2023-09-30T11:34:34;38.29;35.78;50.70;;
47923;Laerm;33688;44.354;9.228;2023-09-30T11:37:00;38.40;35.67;47.11;;
47923;Laerm;33688;44.354;9.228;2023-09-30T11:39:29;38.22;35.63;50.65;;
47923;Laerm;33688;44.354;9.228;2023-09-30T11:41:57;38.26;35.44;47.62;;
47923;Laerm;33688;44.354;9.228;2023-09-30T11:44:24;38.26;35.52;49.13;;
47923;Laerm;33688;44.354;9.228;2023-09-30T11:47:01;38.56;35.69;48.67;;
47923;Laerm;33688;44.354;9.228;2023-09-30T11:49:38;39.16;35.69;61.88;;
47923;Laerm;33688;44.354;9.228;2023-09-30T11:52:11;38.93;35.63;56.65;;
47923;Laerm;33688;44.354;9.228;2023-09-30T11:54:41;38.02;35.60;44.25;;
47923;Laerm;33688;44.354;9.228;2023-09-30T11:57:16;38.06;35.48;48.31;;
47923;Laerm;33688;44.354;9.228;2023-09-30T11:59:44;38.24;35.74;46.71;;
47923;Laerm;33688;44.354;9.228;2023-09-30T12:02:12;38.19;35.60;44.61;;
47923;Laerm;33688;44.354;9.228;2023-09-30T12:04:38;38.79;35.37;58.18;;
47923;Laerm;33688;44.354;9.228;2023-09-30T12:07:04;38.53;35.82;48.82;;
47923;Laerm;33688;44.354;9.228;2023-09-30T12:09:33;38.16;35.72;44.33;;
47923;Laerm;33688;44.354;9.228;2023-09-30T12:12:00;38.40;35.74;54.04;;
47923;Laerm;33688;44.354;9.228;2023-09-30T12:14:26;38.34;35.86;47.31;;
47923;Laerm;33688;44.354;9.228;2023-09-30T12:16:55;38.81;35.73;50.15;;
47923;Laerm;33688;44.354;9.228;2023-09-30T12:19:21;38.55;35.56;53.84;;
47923;Laerm;33688;44.354;9.228;2023-09-30T12:21:47;39.98;35.68;55.93;;
47923;Laerm;33688;44.354;9.228;2023-09-30T12:24:15;39.40;35.98;46.48;;
47923;Laerm;33688;44.354;9.228;2023-09-30T12:26:51;38.46;35.80;49.53;;
47923;Laerm;33688;44.354;9.228;2023-09-30T12:29:19;38.89;35.75;60.41;;
47923;Laerm;33688;44.354;9.228;2023-09-30T12:31:50;38.11;35.55;46.79;;
47923;Laerm;33688;44.354;9.228;2023-09-30T12:34:16;38.29;35.63;50.04;;
47923;Laerm;33688;44.354;9.228;2023-09-30T12:36:43;39.04;35.73;57.12;;
47923;Laerm;33688;44.354;9.228;2023-09-30T12:39:10;38.98;35.70;54.02;;
47923;Laerm;33688;44.354;9.228;2023-09-30T12:41:41;39.21;35.61;58.49;;
47923;Laerm;33688;44.354;9.228;2023-09-30T12:44:09;36.92;35.43;49.77;;
47923;Laerm;33688;44.354;9.228;2023-09-30T12:46:36;37.93;35.50;44.92;;
47923;Laerm;33688;44.354;9.228;2023-09-30T12:49:07;39.31;35.71;59.34;;
47923;Laerm;33688;44.354;9.228;2023-09-30T12:51:33;38.42;35.48;48.51;;
47923;Laerm;33688;44.354;9.228;2023-09-30T12:54:00;39.54;35.64;54.88;;
47923;Laerm;33688;44.354;9.228;2023-09-30T12:56:26;40.75;35.63;60.04;;
47923;Laerm;33688;44.354;9.228;2023-09-30T12:58:52;40.81;35.54;59.67;;
47923;Laerm;33688;44.354;9.228;2023-09-30T13:01:17;38.30;35.58;44.73;;
47923;Laerm;33688;44.354;9.228;2023-09-30T13:03:47;41.56;35.83;60.94;;
47923;Laerm;33688;44.354;9.228;2023-09-30T13:06:13;39.23;35.78;50.51;;
47923;Laerm;33688;44.354;9.228;2023-09-30T13:08:39;38.93;35.68;53.90;;
47923;Laerm;33688;44.354;9.228;2023-09-30T13:11:05;41.66;35.77;59.94;;
47923;Laerm;33688;44.354;9.228;2023-09-30T13:13:33;40.64;35.92;59.05;;
47923;Laerm;33688;44.354;9.228;2023-09-30T13:16:01;41.31;35.58;57.07;;
47923;Laerm;33688;44.354;9.228;2023-09-30T13:18:27;43.12;35.78;62.91;;
47923;Laerm;33688;44.354;9.228;2023-09-30T13:20:53;43.46;35.86;66.14;;
47923;Laerm;33688;44.354;9.228;2023-09-30T13:23:20;42.43;35.71;60.23;;
47923;Laerm;33688;44.354;9.228;2023-09-30T13:25:46;40.79;35.60;60.61;;
47923;Laerm;33688;44.354;9.228;2023-09-30T13:28:13;39.30;36.15;54.47;;
47923;Laerm;33688;44.354;9.228;2023-09-30T13:30:39;40.52;36.01;57.64;;
47923;Laerm;33688;44.354;9.228;2023-09-30T13:33:05;39.72;35.81;60.43;;
47923;Laerm;33688;44.354;9.228;2023-09-30T13:35:31;40.41;35.66;52.96;;
47923;Laerm;33688;44.354;9.228;2023-09-30T13:37:57;38.75;35.61;46.94;;
47923;Laerm;33688;44.354;9.228;2023-09-30T13:40:23;37.99;35.49;44.46;;
47923;Laerm;33688;44.354;9.228;2023-09-30T13:42:49;39.43;35.58;46.99;;
47923;Laerm;33688;44.354;9.228;2023-09-30T13:45:15;37.97;35.60;44.44;;
47923;Laerm;33688;44.354;9.228;2023-09-30T13:47:45;37.85;35.38;44.11;;
47923;Laerm;33688;44.354;9.228;2023-09-30T13:50:10;37.99;35.55;44.19;;
47923;Laerm;33688;44.354;9.228;2023-09-30T13:52:36;39.10;35.48;48.31;;
47923;Laerm;33688;44.354;9.228;2023-09-30T13:55:02;37.93;35.40;44.24;;
47923;Laerm;33688;44.354;9.228;2023-09-30T13:57:30;37.93;35.38;44.41;;
47923;Laerm;33688;44.354;9.228;2023-09-30T13:59:56;37.97;35.58;44.47;;
47923;Laerm;33688;44.354;9.228;2023-09-30T14:02:22;38.03;35.56;46.60;;
47923;Laerm;33688;44.354;9.228;2023-09-30T14:04:49;38.11;35.47;44.47;;